Nova Serrana, Brazil
Current Conditions -  °F | °C
As of 6:00 AM on Monday 20 Oct 2014 (Local Time) from SBPR Reporting Station
Light Rain Light Rain  
Wind Chill: 70°   Ceiling: 2500
Heat Index: 70°   Visibility: 6mi
Dew Point: 64°   Wind: 12mph
Humidity: 83%   Direction: 180°S
Pressure: 30.03"   Gusts: NA
Location:  19.88°S, 44.98°W
Report Text: SBPR 200900Z 18010KT 9999 -RA BKN025 BKN080 21/18 Q1017
Loading
Personal Weather Stations






























Interactive Weather Map
Tropical Storm Tracking
New forecast layout! Learn more

10-Day Weather Forecast

Advertisements
Track Severe Weather on mobile